createdAt,value
2019-03-13T00:01:05.429Z,50.87
2019-03-13T00:03:37.337Z,52.44
2019-03-13T00:06:09.270Z,53.76
2019-03-13T00:08:41.159Z,55.35
2019-03-13T00:11:13.039Z,54.48
2019-03-13T00:13:45.164Z,54.28
2019-03-13T00:16:18.117Z,54.61
2019-03-13T00:18:49.919Z,54.76
2019-03-13T00:21:21.671Z,54.34
2019-03-13T00:23:53.381Z,54.56
2019-03-13T00:26:25.210Z,53.49
2019-03-13T00:28:56.938Z,49.23
2019-03-13T00:31:28.752Z,49.16
2019-03-13T00:34:00.474Z,48.27
2019-03-13T00:36:32.361Z,48.56
2019-03-13T00:39:07.086Z,49.59
2019-03-13T00:41:39.056Z,50.68
2019-03-13T00:44:11.109Z,51.68
2019-03-13T00:46:42.925Z,52.10
2019-03-13T00:49:14.714Z,54.20
2019-03-13T00:51:46.457Z,57.70
2019-03-13T00:54:18.274Z,58.99
2019-03-13T00:56:50.253Z,60.46
2019-03-13T00:59:21.972Z,61.77
2019-03-13T01:02:09.688Z,63.43
2019-03-13T01:04:49.248Z,64.31
2019-03-13T01:07:21.057Z,64.84
2019-03-13T01:09:52.880Z,64.78
2019-03-13T01:12:24.687Z,64.47
2019-03-13T01:14:57.449Z,65.66
2019-03-13T01:17:29.262Z,66.39
2019-03-13T01:20:01.502Z,66.88
2019-03-13T01:22:33.237Z,68.55
2019-03-13T01:25:05.793Z,69.36
2019-03-13T01:27:37.544Z,71.18
2019-03-13T01:30:10.629Z,73.50
2019-03-13T01:32:48.813Z,76.02
2019-03-13T01:35:33.588Z,75.37
2019-03-13T01:38:05.405Z,75.75
2019-03-13T01:40:37.453Z,74.36
2019-03-13T01:43:09.279Z,73.49
2019-03-13T01:45:41.368Z,74.51
2019-03-13T01:48:13.113Z,75.71
2019-03-13T01:50:45.103Z,75.71
2019-03-13T01:53:16.940Z,75.79
2019-03-13T01:55:48.992Z,76.16
2019-03-13T01:58:20.758Z,75.90
2019-03-13T02:00:52.810Z,76.83
2019-03-13T02:03:24.722Z,77.11
2019-03-13T02:05:56.786Z,77.32
2019-03-13T02:08:28.612Z,77.44
2019-03-13T02:11:00.493Z,77.72
2019-03-13T02:13:32.397Z,77.67
2019-03-13T02:16:04.304Z,76.96
2019-03-13T02:18:36.215Z,76.67
2019-03-13T02:21:08.161Z,77.65
2019-03-13T02:23:40.232Z,78.04
2019-03-13T02:26:12.003Z,78.07
2019-03-13T02:28:43.816Z,77.48
2019-03-13T02:31:16.332Z,78.04
2019-03-13T02:33:48.652Z,78.71
2019-03-13T02:36:20.408Z,78.06
2019-03-13T02:38:52.135Z,77.72
2019-03-13T02:41:23.904Z,76.71
2019-03-13T02:43:55.728Z,76.71
2019-03-13T02:46:27.479Z,76.96
2019-03-13T02:48:59.228Z,78.97
2019-03-13T02:51:31.114Z,80.63
2019-03-13T02:54:02.864Z,82.40
2019-03-13T02:56:34.751Z,85.37
2019-03-13T02:59:06.579Z,86.31
2019-03-13T03:01:44.604Z,86.92
2019-03-13T03:04:16.344Z,86.80
2019-03-13T03:06:48.083Z,86.95
2019-03-13T03:09:19.849Z,86.35
2019-03-13T03:11:51.823Z,85.78
2019-03-13T03:14:24.008Z,85.26
2019-03-13T03:16:55.741Z,84.76
2019-03-13T03:19:27.496Z,84.98
2019-03-13T03:21:59.542Z,84.05
2019-03-13T03:24:31.468Z,83.71
2019-03-13T03:27:03.341Z,82.37
2019-03-13T03:29:38.537Z,82.90
2019-03-13T03:32:08.926Z,82.14
2019-03-13T03:34:40.911Z,82.30
2019-03-13T03:37:12.875Z,82.29
2019-03-13T03:39:44.608Z,80.83
2019-03-13T03:42:16.523Z,81.40
2019-03-13T03:44:48.251Z,80.12
2019-03-13T03:47:20.041Z,80.11
2019-03-13T03:49:51.849Z,79.55
2019-03-13T03:52:23.830Z,79.60
2019-03-13T03:54:55.557Z,79.86
2019-03-13T03:57:27.284Z,79.49
2019-03-13T03:59:59.329Z,79.97
2019-03-13T04:02:31.129Z,79.10
2019-03-13T04:05:03.132Z,78.29
2019-03-13T04:07:35.556Z,78.74
2019-03-13T04:10:07.695Z,77.38
2019-03-13T04:12:39.733Z,77.53
2019-03-13T04:15:12.478Z,77.00
2019-03-13T04:17:44.608Z,77.27
2019-03-13T04:20:16.494Z,77.20
2019-03-13T04:22:48.288Z,76.17
2019-03-13T04:25:39.195Z,76.36
2019-03-13T04:28:11.420Z,75.88
2019-03-13T04:30:43.155Z,77.31
2019-03-13T04:33:15.180Z,78.59
2019-03-13T04:35:46.906Z,78.25
2019-03-13T04:38:19.615Z,78.38
2019-03-13T04:40:51.409Z,77.68
2019-03-13T04:43:23.142Z,77.86
2019-03-13T04:45:55.839Z,78.55
2019-03-13T04:48:27.893Z,79.60
2019-03-13T04:50:59.616Z,80.44
2019-03-13T04:53:31.612Z,80.58
2019-03-13T04:56:03.314Z,79.31
2019-03-13T04:58:35.311Z,78.92
2019-03-13T05:01:07.352Z,79.23
2019-03-13T05:03:39.097Z,78.89
2019-03-13T05:06:22.096Z,79.14
2019-03-13T05:09:22.328Z,79.37
2019-03-13T05:11:54.042Z,79.92
2019-03-13T05:14:25.766Z,80.37
2019-03-13T05:16:57.479Z,80.78
2019-03-13T05:19:29.212Z,81.35
2019-03-13T05:22:00.996Z,81.37
2019-03-13T05:24:33.037Z,80.83
2019-03-13T05:27:04.838Z,80.50
2019-03-13T05:29:36.901Z,80.03
2019-03-13T05:32:08.617Z,79.84
2019-03-13T05:34:40.345Z,80.76
2019-03-13T05:37:12.068Z,80.13
2019-03-13T05:39:43.877Z,80.17
2019-03-13T05:42:15.599Z,80.68
2019-03-13T05:44:47.331Z,79.03
2019-03-13T05:47:19.042Z,77.78
2019-03-13T05:49:50.778Z,78.04
2019-03-13T05:52:22.495Z,76.57
2019-03-13T05:54:54.212Z,76.48
2019-03-13T05:57:25.935Z,75.99
2019-03-13T05:59:57.663Z,75.82
2019-03-13T06:02:29.476Z,75.89
2019-03-13T06:05:01.195Z,76.50
2019-03-13T06:07:32.917Z,76.15
2019-03-13T06:10:04.977Z,76.97
2019-03-13T06:12:36.686Z,77.64
2019-03-13T06:15:08.915Z,78.60
2019-03-13T06:17:40.643Z,77.97
2019-03-13T06:20:12.675Z,77.64
2019-03-13T06:22:44.468Z,77.38
2019-03-13T06:25:16.356Z,77.74
2019-03-13T06:27:48.142Z,77.50
2019-03-13T06:30:19.997Z,77.11
2019-03-13T06:32:51.795Z,77.05
2019-03-13T06:35:24.500Z,77.40
2019-03-13T06:37:56.225Z,77.69
2019-03-13T06:40:28.055Z,76.67
2019-03-13T06:42:59.765Z,76.27
2019-03-13T06:45:32.932Z,76.00
2019-03-13T06:48:04.781Z,75.49
2019-03-13T06:50:36.587Z,75.26
2019-03-13T06:53:08.448Z,74.44
2019-03-13T06:55:40.151Z,75.20
2019-03-13T06:58:11.870Z,74.48
2019-03-13T07:01:00.226Z,73.07
2019-03-13T07:03:49.565Z,71.09
2019-03-13T07:06:43.790Z,70.92
2019-03-13T07:09:46.568Z,68.32
2019-03-13T07:12:26.005Z,68.75
2019-03-13T07:15:19.401Z,67.72
2019-03-13T07:18:16.124Z,66.88
2019-03-13T07:21:09.978Z,66.39
2019-03-13T07:23:57.100Z,66.46
2019-03-13T07:26:51.545Z,67.65
2019-03-13T07:29:45.295Z,67.18
2019-03-13T07:32:34.781Z,67.42
2019-03-13T07:35:31.390Z,67.84
2019-03-13T07:38:15.825Z,65.88
2019-03-13T07:41:05.537Z,66.54
2019-03-13T07:43:49.377Z,66.87
2019-03-13T07:46:32.884Z,67.38
2019-03-13T07:49:53.564Z,66.93
2019-03-13T07:52:35.324Z,66.65
2019-03-13T07:55:25.869Z,66.76
2019-03-13T07:58:19.539Z,66.89
2019-03-13T08:01:13.222Z,65.87
2019-03-13T08:03:52.939Z,66.95
2019-03-13T08:06:43.373Z,66.54
2019-03-13T08:09:45.907Z,66.85
2019-03-13T08:12:42.363Z,67.34
2019-03-13T08:15:31.051Z,66.77
2019-03-13T08:18:20.264Z,65.57
2019-03-13T08:21:10.784Z,66.32
2019-03-13T08:23:59.582Z,66.81
2019-03-13T08:26:50.221Z,64.28
2019-03-13T08:29:43.648Z,63.62
2019-03-13T08:32:34.354Z,64.32
2019-03-13T08:35:28.048Z,64.06
2019-03-13T08:38:30.848Z,62.82
2019-03-13T08:41:27.584Z,62.32
2019-03-13T08:44:16.963Z,62.57
2019-03-13T08:47:07.583Z,61.91
2019-03-13T08:49:56.699Z,61.70
2019-03-13T08:52:34.876Z,61.61
2019-03-13T08:55:28.612Z,61.24
2019-03-13T08:58:08.665Z,61.21
2019-03-13T09:00:49.287Z,60.34
2019-03-13T09:03:27.976Z,60.40
2019-03-13T09:06:24.837Z,60.48
2019-03-13T09:09:18.603Z,60.18
2019-03-13T09:11:55.971Z,60.50
2019-03-13T09:14:33.054Z,60.32
2019-03-13T09:17:19.990Z,61.04
2019-03-13T09:20:09.106Z,60.94
2019-03-13T09:22:56.931Z,60.43
2019-03-13T09:25:46.288Z,60.21
2019-03-13T09:28:29.878Z,60.34
2019-03-13T09:31:16.051Z,60.84
2019-03-13T09:34:00.046Z,60.74
2019-03-13T09:36:42.700Z,60.84
2019-03-13T09:39:48.212Z,59.86
2019-03-13T09:42:34.846Z,61.14
2019-03-13T09:45:25.851Z,60.12
2019-03-13T09:48:22.360Z,59.53
2019-03-13T09:51:00.211Z,59.05
2019-03-13T09:53:40.101Z,59.25
2019-03-13T09:56:28.457Z,60.22
2019-03-13T09:59:16.472Z,60.15
2019-03-13T10:02:12.902Z,60.35
2019-03-13T10:05:02.253Z,60.65
2019-03-13T10:07:56.051Z,60.72
2019-03-13T10:10:35.612Z,61.01
2019-03-13T10:13:19.712Z,60.54
2019-03-13T10:16:09.190Z,60.58
2019-03-13T10:18:58.666Z,59.83
2019-03-13T10:21:40.529Z,58.80
2019-03-13T10:24:40.218Z,59.05
2019-03-13T10:27:31.118Z,57.86
2019-03-13T10:30:10.620Z,57.48
2019-03-13T10:32:50.723Z,57.30
2019-03-13T10:35:40.090Z,56.63
2019-03-13T10:38:41.047Z,55.37
2019-03-13T10:41:34.435Z,54.81
2019-03-13T10:44:31.161Z,54.49
2019-03-13T10:47:15.117Z,55.36
2019-03-13T10:50:08.569Z,54.58
2019-03-13T10:52:57.946Z,54.25
2019-03-13T10:55:47.147Z,52.47
2019-03-13T10:58:36.469Z,52.92
2019-03-13T11:01:17.894Z,53.42
2019-03-13T11:04:07.201Z,53.68
2019-03-13T11:06:57.835Z,54.03
2019-03-13T11:10:00.514Z,55.02
2019-03-13T11:12:37.483Z,55.32
2019-03-13T11:15:27.561Z,56.02
2019-03-13T11:18:04.763Z,55.96
2019-03-13T11:20:58.934Z,56.23
2019-03-13T11:23:55.251Z,55.73
2019-03-13T11:26:58.032Z,55.14
2019-03-13T11:30:01.324Z,55.83
2019-03-13T11:32:50.774Z,55.96
2019-03-13T11:35:41.399Z,57.10
2019-03-13T11:38:20.381Z,55.98
2019-03-13T11:41:09.785Z,55.53
2019-03-13T11:43:47.325Z,55.59
2019-03-13T11:46:43.973Z,55.55
2019-03-13T11:49:33.206Z,55.62
2019-03-13T11:52:14.906Z,55.85
2019-03-13T11:55:03.966Z,54.08
2019-03-13T11:57:53.048Z,54.81
2019-03-13T12:00:50.449Z,54.93
2019-03-13T12:03:40.075Z,55.19
2019-03-13T12:06:33.804Z,55.30
2019-03-13T12:09:25.255Z,54.24
2019-03-13T12:12:15.288Z,54.83
2019-03-13T12:14:55.866Z,54.82
2019-03-13T12:17:37.521Z,56.03
2019-03-13T12:20:37.858Z,56.92
2019-03-13T12:23:35.596Z,57.03
2019-03-13T12:26:18.784Z,56.35
2019-03-13T12:29:09.397Z,56.29
2019-03-13T12:31:54.324Z,56.06
2019-03-13T12:34:44.443Z,54.38
2019-03-13T12:37:33.878Z,54.95
2019-03-13T12:40:31.574Z,54.48
2019-03-13T12:43:20.931Z,55.44
2019-03-13T12:46:01.646Z,56.00
2019-03-13T12:49:04.444Z,55.54
2019-03-13T12:51:55.066Z,55.00
2019-03-13T12:54:34.582Z,55.51
2019-03-13T12:57:21.460Z,54.47
2019-03-13T13:00:00.491Z,54.35
2019-03-13T13:02:49.588Z,54.59
2019-03-13T13:05:38.329Z,54.76
2019-03-13T13:08:33.820Z,55.50
2019-03-13T13:11:14.061Z,54.32
2019-03-13T13:14:03.265Z,54.66
2019-03-13T13:16:52.437Z,55.37
2019-03-13T13:19:24.148Z,60.79
2019-03-13T13:21:55.939Z,62.91
2019-03-13T13:24:27.882Z,64.77
2019-03-13T13:27:00.015Z,64.82
2019-03-13T13:29:31.716Z,63.46
2019-03-13T13:32:03.505Z,61.96
2019-03-13T13:34:35.291Z,61.08
2019-03-13T13:37:08.039Z,61.65
2019-03-13T13:39:39.832Z,59.29
2019-03-13T13:42:11.631Z,58.86
2019-03-13T13:44:43.428Z,58.20
2019-03-13T13:47:15.129Z,57.27
2019-03-13T13:49:58.849Z,57.47
2019-03-13T13:52:20.262Z,57.61
2019-03-13T13:54:52.934Z,57.39
2019-03-13T13:57:24.896Z,56.61
2019-03-13T13:59:59.175Z,55.81
2019-03-13T14:02:30.142Z,56.11
2019-03-13T14:05:02.807Z,54.76
2019-03-13T14:07:34.609Z,55.57
2019-03-13T14:10:06.911Z,55.38
2019-03-13T14:12:38.692Z,56.17
2019-03-13T14:15:11.801Z,53.48
2019-03-13T14:17:43.600Z,51.99
2019-03-13T14:20:15.689Z,51.69
2019-03-13T14:22:47.488Z,50.25
2019-03-13T14:25:19.290Z,49.72
2019-03-13T14:27:51.168Z,50.12
2019-03-13T14:30:22.969Z,50.32
2019-03-13T14:32:54.684Z,50.00
2019-03-13T14:35:26.468Z,50.05
2019-03-13T14:37:58.342Z,50.84
2019-03-13T14:40:30.090Z,51.27
2019-03-13T14:43:02.242Z,52.75
2019-03-13T14:45:34.020Z,53.66
2019-03-13T14:48:06.026Z,54.14
2019-03-13T14:50:37.837Z,55.01
2019-03-13T14:53:11.137Z,55.69
2019-03-13T14:55:42.920Z,56.62
2019-03-13T14:58:14.693Z,58.46
2019-03-13T15:00:46.728Z,59.44
2019-03-13T15:03:18.454Z,60.83
2019-03-13T15:05:50.212Z,61.63
2019-03-13T15:08:21.941Z,62.08
2019-03-13T15:10:53.714Z,62.49
2019-03-13T15:13:25.458Z,62.70
2019-03-13T15:15:57.487Z,63.77
2019-03-13T15:18:29.279Z,64.71
2019-03-13T15:21:01.394Z,64.89
2019-03-13T15:23:33.257Z,64.24
2019-03-13T15:26:05.443Z,63.91
2019-03-13T15:28:37.407Z,64.10
2019-03-13T15:31:11.332Z,64.17
2019-03-13T15:33:43.049Z,63.08
2019-03-13T15:36:14.909Z,62.16
2019-03-13T15:38:46.712Z,63.06
2019-03-13T15:41:18.501Z,63.18
2019-03-13T15:43:50.217Z,62.78
2019-03-13T15:46:21.917Z,63.45
2019-03-13T15:48:53.716Z,63.38
2019-03-13T15:51:25.477Z,63.88
2019-03-13T15:53:57.173Z,64.14
2019-03-13T15:56:28.875Z,64.98
2019-03-13T15:59:00.848Z,65.21
2019-03-13T16:01:32.580Z,65.79
2019-03-13T16:04:04.435Z,65.94
2019-03-13T16:06:36.217Z,66.60
2019-03-13T16:09:09.357Z,67.30
2019-03-13T16:11:42.652Z,67.39
2019-03-13T16:14:14.372Z,66.79
2019-03-13T16:16:46.190Z,67.79
2019-03-13T16:19:17.919Z,66.51
2019-03-13T16:21:49.707Z,66.54
2019-03-13T16:24:21.430Z,66.42
2019-03-13T16:26:53.147Z,67.02
2019-03-13T16:29:24.904Z,66.72
2019-03-13T16:31:56.718Z,66.51
2019-03-13T16:34:28.684Z,66.08
2019-03-13T16:37:00.649Z,65.96
2019-03-13T16:39:42.061Z,66.37
2019-03-13T16:42:21.185Z,66.49
2019-03-13T16:44:53.151Z,67.41
2019-03-13T16:47:25.197Z,68.64
2019-03-13T16:49:56.912Z,68.13
2019-03-13T16:52:28.687Z,69.17
2019-03-13T16:55:00.450Z,67.58
2019-03-13T16:57:33.967Z,68.21
2019-03-13T17:00:08.479Z,67.17
2019-03-13T17:02:41.150Z,67.57
2019-03-13T17:05:13.609Z,67.18
2019-03-13T17:07:45.391Z,67.81
2019-03-13T17:10:18.003Z,68.03
2019-03-13T17:12:49.859Z,67.69
2019-03-13T17:15:22.307Z,66.80
2019-03-13T17:17:54.445Z,67.33
2019-03-13T17:25:01.986Z,67.69
2019-03-13T17:27:33.987Z,67.55
2019-03-13T17:30:08.330Z,67.00
2019-03-13T17:32:40.089Z,67.35
2019-03-13T17:35:11.933Z,67.87
2019-03-13T17:37:43.692Z,67.94
2019-03-13T17:40:19.328Z,67.09
2019-03-13T17:42:51.068Z,67.16
2019-03-13T17:45:23.054Z,67.43
2019-03-13T17:47:56.820Z,67.61
2019-03-13T17:50:28.843Z,68.09
2019-03-13T17:53:03.417Z,68.33
2019-03-13T17:55:35.207Z,68.13
2019-03-13T17:58:07.081Z,67.68
2019-03-13T18:00:45.152Z,68.01
2019-03-13T18:03:17.152Z,68.60
2019-03-13T18:05:49.191Z,69.64
2019-03-13T18:08:21.470Z,70.10
2019-03-13T18:10:53.391Z,70.80
2019-03-13T18:13:25.166Z,72.95
2019-03-13T18:15:56.964Z,75.21
2019-03-13T18:18:28.909Z,76.34
2019-03-13T18:21:00.745Z,77.31
2019-03-13T18:23:32.676Z,80.07
2019-03-13T18:26:04.677Z,79.58
2019-03-13T18:28:36.446Z,80.02
2019-03-13T18:31:08.458Z,81.32
2019-03-13T18:33:40.301Z,83.84
2019-03-13T18:36:14.179Z,84.61
2019-03-13T18:38:45.725Z,85.53
2019-03-13T18:41:17.524Z,85.44
2019-03-13T18:43:49.532Z,86.26
2019-03-13T18:46:21.343Z,85.35
2019-03-13T18:48:53.144Z,85.65
2019-03-13T18:51:25.001Z,86.15
2019-03-13T18:53:56.746Z,85.26
2019-03-13T18:56:28.866Z,87.10
2019-03-13T18:59:00.669Z,85.81
2019-03-13T19:01:33.347Z,86.60
2019-03-13T19:04:05.495Z,85.86
2019-03-13T19:06:37.412Z,87.59
2019-03-13T19:09:11.222Z,87.30
2019-03-13T19:11:44.653Z,86.61
2019-03-13T19:14:16.529Z,87.66
2019-03-13T19:16:48.867Z,87.70
2019-03-13T19:19:20.657Z,88.19
2019-03-13T19:21:52.550Z,88.36
2019-03-13T19:24:24.518Z,88.78
2019-03-13T19:26:56.727Z,89.46
2019-03-13T19:29:28.713Z,89.71
2019-03-13T19:32:00.755Z,91.23
2019-03-13T19:34:32.819Z,90.97
2019-03-13T19:37:05.077Z,91.56
2019-03-13T19:39:37.735Z,91.19
2019-03-13T19:42:09.828Z,90.72
2019-03-13T19:44:43.021Z,91.39
2019-03-13T19:47:15.034Z,92.50
2019-03-13T19:49:47.033Z,92.07
2019-03-13T19:52:18.905Z,92.44
2019-03-13T19:54:50.837Z,91.89
2019-03-13T19:57:22.756Z,92.68
2019-03-13T19:59:54.655Z,93.01
2019-03-13T20:02:26.379Z,92.79
2019-03-13T20:04:59.221Z,91.80
2019-03-13T20:07:31.198Z,91.67
2019-03-13T20:10:03.118Z,92.29
2019-03-13T20:12:35.101Z,92.29
2019-03-13T20:15:08.654Z,92.22
2019-03-13T20:17:41.739Z,92.33
2019-03-13T20:20:15.673Z,93.17
2019-03-13T20:22:49.072Z,93.22
2019-03-13T20:25:21.108Z,93.04
2019-03-13T20:27:54.724Z,92.53
2019-03-13T20:30:26.845Z,91.53
2019-03-13T20:32:58.836Z,91.36
2019-03-13T20:35:30.678Z,91.84
2019-03-13T20:38:02.406Z,91.68
2019-03-13T20:40:34.335Z,92.20
2019-03-13T20:43:06.491Z,92.04
2019-03-13T20:45:38.376Z,91.39
2019-03-13T20:48:11.597Z,92.00
2019-03-13T20:50:43.396Z,90.83
2019-03-13T20:53:15.192Z,91.39
2019-03-13T20:55:47.102Z,92.51
2019-03-13T20:58:18.910Z,91.58
2019-03-13T21:00:50.612Z,91.40
2019-03-13T21:03:22.416Z,93.56
2019-03-13T21:05:54.143Z,92.76
2019-03-13T21:08:25.896Z,92.62
2019-03-13T21:10:57.753Z,92.79
2019-03-13T21:13:29.552Z,93.54
2019-03-13T21:16:01.272Z,92.58
2019-03-13T21:18:33.231Z,92.86
2019-03-13T21:21:05.011Z,92.39
2019-03-13T21:23:37.077Z,91.85
2019-03-13T21:26:08.788Z,91.66
2019-03-13T21:28:40.504Z,91.72
2019-03-13T21:31:12.215Z,92.07
2019-03-13T21:33:44.001Z,92.77
2019-03-13T21:36:15.674Z,93.03
2019-03-13T21:38:47.507Z,92.38
2019-03-13T21:41:19.585Z,92.21
2019-03-13T21:43:51.331Z,91.81
2019-03-13T21:46:23.081Z,92.45
2019-03-13T21:48:54.803Z,92.74
2019-03-13T21:51:26.551Z,92.61
2019-03-13T21:53:58.366Z,92.65
2019-03-13T21:56:30.212Z,92.41
2019-03-13T21:59:02.070Z,92.30
2019-03-13T22:01:33.787Z,92.07
2019-03-13T22:04:07.850Z,94.46
2019-03-13T22:06:39.053Z,93.44
2019-03-13T22:09:11.224Z,93.07
2019-03-13T22:11:43.078Z,92.79
2019-03-13T22:14:15.162Z,93.70
2019-03-13T22:16:48.025Z,93.40
2019-03-13T22:19:19.916Z,93.33
2019-03-13T22:21:51.616Z,95.10
2019-03-13T22:24:23.416Z,94.47
2019-03-13T22:26:55.228Z,96.01
2019-03-13T22:29:27.006Z,96.03
2019-03-13T22:31:58.728Z,96.00
2019-03-13T22:34:30.507Z,94.43
2019-03-13T22:37:02.222Z,96.38
2019-03-13T22:39:35.036Z,94.33
2019-03-13T22:42:06.740Z,93.68
2019-03-13T22:44:38.708Z,90.66
2019-03-13T22:47:10.878Z,89.73
2019-03-13T22:49:42.670Z,90.65
2019-03-13T22:52:14.376Z,90.12
2019-03-13T22:54:46.361Z,90.77
2019-03-13T22:57:18.078Z,90.84
2019-03-13T22:59:49.802Z,91.57
2019-03-13T23:02:21.592Z,92.96
2019-03-13T23:04:53.368Z,93.05
2019-03-13T23:07:25.172Z,93.43
2019-03-13T23:09:56.873Z,92.17
2019-03-13T23:12:30.407Z,93.38
2019-03-13T23:15:05.377Z,93.38
2019-03-13T23:17:36.510Z,93.92
2019-03-13T23:20:08.527Z,94.34
2019-03-13T23:22:40.326Z,93.35
2019-03-13T23:25:13.174Z,93.61
2019-03-13T23:27:44.953Z,93.59
2019-03-13T23:30:17.177Z,93.55
2019-03-13T23:32:48.904Z,93.17
2019-03-13T23:35:20.593Z,93.01
2019-03-13T23:37:52.438Z,94.23
2019-03-13T23:40:24.353Z,93.32
2019-03-13T23:42:56.149Z,93.76
2019-03-13T23:45:28.966Z,94.15
2019-03-13T23:48:00.674Z,93.42
2019-03-13T23:50:32.621Z,93.67
2019-03-13T23:53:04.408Z,93.65
2019-03-13T23:55:36.254Z,94.24
2019-03-13T23:58:11.261Z,94.17
